sensor_id;sensor_type;location;lat;lon;timestamp;pressure;altitude;pressure_sealevel;temperature;humidity
51849;BME280;38952;51.090;-1.832;2022-08-21T00:00:16;100427.81;;;14.24;87.76
51849;BME280;38952;51.090;-1.832;2022-08-21T00:03:04;100432.50;;;14.24;87.41
51849;BME280;38952;51.090;-1.832;2022-08-21T00:05:31;100434.72;;;14.22;87.42
51849;BME280;38952;51.090;-1.832;2022-08-21T00:07:57;100419.38;;;14.16;87.34
51849;BME280;38952;51.090;-1.832;2022-08-21T00:10:22;100416.13;;;14.13;88.11
51849;BME280;38952;51.090;-1.832;2022-08-21T00:12:48;100405.72;;;14.05;87.54
51849;BME280;38952;51.090;-1.832;2022-08-21T00:15:18;100396.69;;;14.05;87.79
51849;BME280;38952;51.090;-1.832;2022-08-21T00:17:44;100397.19;;;14.07;87.76
51849;BME280;38952;51.090;-1.832;2022-08-21T00:20:11;100405.44;;;14.07;88.13
51849;BME280;38952;51.090;-1.832;2022-08-21T00:22:37;100398.00;;;14.07;88.40
51849;BME280;38952;51.090;-1.832;2022-08-21T00:25:05;100397.47;;;14.05;88.04
51849;BME280;38952;51.090;-1.832;2022-08-21T00:27:31;100396.97;;;14.03;88.06
51849;BME280;38952;51.090;-1.832;2022-08-21T00:29:57;100398.34;;;14.01;88.20
51849;BME280;38952;51.090;-1.832;2022-08-21T00:32:25;100396.41;;;14.01;88.11
51849;BME280;38952;51.090;-1.832;2022-08-21T00:34:51;100397.88;;;13.93;88.30
51849;BME280;38952;51.090;-1.832;2022-08-21T00:37:18;100410.75;;;13.98;88.34
51849;BME280;38952;51.090;-1.832;2022-08-21T00:39:43;100410.22;;;13.96;88.02
51849;BME280;38952;51.090;-1.832;2022-08-21T00:42:09;100399.25;;;13.91;88.45
51849;BME280;38952;51.090;-1.832;2022-08-21T00:44:35;100404.72;;;13.96;88.10
51849;BME280;38952;51.090;-1.832;2022-08-21T00:47:01;100408.28;;;13.96;88.35
51849;BME280;38952;51.090;-1.832;2022-08-21T00:49:26;100404.19;;;13.94;88.30
51849;BME280;38952;51.090;-1.832;2022-08-21T00:51:55;100403.38;;;13.93;88.51
51849;BME280;38952;51.090;-1.832;2022-08-21T00:54:25;100403.59;;;13.97;88.20
51849;BME280;38952;51.090;-1.832;2022-08-21T00:57:06;100406.06;;;13.99;88.53
51849;BME280;38952;51.090;-1.832;2022-08-21T00:59:35;100405.25;;;13.98;88.47
51849;BME280;38952;51.090;-1.832;2022-08-21T01:02:03;100401.13;;;13.95;88.38
51849;BME280;38952;51.090;-1.832;2022-08-21T01:04:29;100409.16;;;13.92;88.03
51849;BME280;38952;51.090;-1.832;2022-08-21T01:06:54;100404.75;;;13.91;88.16
51849;BME280;38952;51.090;-1.832;2022-08-21T01:09:20;100389.16;;;13.81;88.53
51849;BME280;38952;51.090;-1.832;2022-08-21T01:11:46;100401.81;;;13.82;88.22
51849;BME280;38952;51.090;-1.832;2022-08-21T01:14:14;100398.56;;;13.80;88.45
51849;BME280;38952;51.090;-1.832;2022-08-21T01:16:46;100399.13;;;13.77;88.85
51849;BME280;38952;51.090;-1.832;2022-08-21T01:19:12;100393.94;;;13.70;89.14
51849;BME280;38952;51.090;-1.832;2022-08-21T01:21:39;100401.69;;;13.68;88.95
51849;BME280;38952;51.090;-1.832;2022-08-21T01:24:04;100396.72;;;13.65;88.93
51849;BME280;38952;51.090;-1.832;2022-08-21T01:26:33;100398.38;;;13.66;89.33
51849;BME280;38952;51.090;-1.832;2022-08-21T01:32:11;100418.78;;;13.55;89.19
51849;BME280;38952;51.090;-1.832;2022-08-21T01:34:40;100404.00;;;13.51;89.60
51849;BME280;38952;51.090;-1.832;2022-08-21T01:37:06;100413.38;;;13.44;89.43
51849;BME280;38952;51.090;-1.832;2022-08-21T01:39:32;100398.63;;;13.35;90.17
51849;BME280;38952;51.090;-1.832;2022-08-21T01:41:57;100401.34;;;13.35;90.67
51849;BME280;38952;51.090;-1.832;2022-08-21T01:44:23;100403.00;;;13.36;90.83
51849;BME280;38952;51.090;-1.832;2022-08-21T01:46:50;100398.03;;;13.38;91.13
51849;BME280;38952;51.090;-1.832;2022-08-21T01:49:16;100403.53;;;13.38;91.25
51849;BME280;38952;51.090;-1.832;2022-08-21T01:51:43;100398.88;;;13.34;91.35
51849;BME280;38952;51.090;-1.832;2022-08-21T01:54:09;100409.06;;;13.28;91.34
51849;BME280;38952;51.090;-1.832;2022-08-21T01:56:40;100403.63;;;13.23;91.94
51849;BME280;38952;51.090;-1.832;2022-08-21T01:59:06;100389.69;;;13.04;91.70
51849;BME280;38952;51.090;-1.832;2022-08-21T02:01:32;100412.72;;;13.13;91.66
51849;BME280;38952;51.090;-1.832;2022-08-21T02:03:57;100416.06;;;13.05;92.54
51849;BME280;38952;51.090;-1.832;2022-08-21T02:06:24;100413.63;;;12.98;92.03
51849;BME280;38952;51.090;-1.832;2022-08-21T02:08:50;100409.81;;;12.94;92.13
51849;BME280;38952;51.090;-1.832;2022-08-21T02:11:16;100412.56;;;12.94;92.24
51849;BME280;38952;51.090;-1.832;2022-08-21T02:13:42;100407.88;;;12.95;92.76
51849;BME280;38952;51.090;-1.832;2022-08-21T02:16:08;100400.44;;;12.95;92.90
51849;BME280;38952;51.090;-1.832;2022-08-21T02:18:34;100404.84;;;12.96;92.86
51849;BME280;38952;51.090;-1.832;2022-08-21T02:21:00;100398.25;;;12.97;92.99
51849;BME280;38952;51.090;-1.832;2022-08-21T02:23:25;100392.50;;;12.93;93.01
51849;BME280;38952;51.090;-1.832;2022-08-21T02:25:51;100391.69;;;12.93;93.10
51849;BME280;38952;51.090;-1.832;2022-08-21T02:28:16;100383.75;;;12.91;93.18
51849;BME280;38952;51.090;-1.832;2022-08-21T02:30:45;100382.94;;;12.91;93.05
51849;BME280;38952;51.090;-1.832;2022-08-21T02:33:11;100375.28;;;12.88;93.38
51849;BME280;38952;51.090;-1.832;2022-08-21T02:35:39;100379.09;;;12.87;93.52
51849;BME280;38952;51.090;-1.832;2022-08-21T02:38:10;100373.06;;;12.85;93.59
51849;BME280;38952;51.090;-1.832;2022-08-21T02:40:38;100373.06;;;12.85;93.35
51849;BME280;38952;51.090;-1.832;2022-08-21T02:43:05;100373.63;;;12.82;93.45
51849;BME280;38952;51.090;-1.832;2022-08-21T02:45:32;100371.44;;;12.84;93.82
51849;BME280;38952;51.090;-1.832;2022-08-21T02:48:04;100372.00;;;12.81;94.04
51849;BME280;38952;51.090;-1.832;2022-08-21T02:50:33;100374.78;;;12.75;93.75
51849;BME280;38952;51.090;-1.832;2022-08-21T02:52:59;100370.09;;;12.76;93.84
51849;BME280;38952;51.090;-1.832;2022-08-21T02:55:27;100379.75;;;12.68;94.27
51849;BME280;38952;51.090;-1.832;2022-08-21T02:57:54;100379.75;;;12.68;93.81
51849;BME280;38952;51.090;-1.832;2022-08-21T03:00:21;100387.16;;;12.63;93.84
51849;BME280;38952;51.090;-1.832;2022-08-21T03:02:48;100393.50;;;12.58;93.70
51849;BME280;38952;51.090;-1.832;2022-08-21T03:05:15;100398.47;;;12.56;94.43
51849;BME280;38952;51.090;-1.832;2022-08-21T03:07:42;100393.53;;;12.53;94.43
51849;BME280;38952;51.090;-1.832;2022-08-21T03:10:08;100404.75;;;12.56;94.18
51849;BME280;38952;51.090;-1.832;2022-08-21T03:12:35;100405.31;;;12.53;94.29
51849;BME280;38952;51.090;-1.832;2022-08-21T03:15:03;100405.31;;;12.53;94.64
51849;BME280;38952;51.090;-1.832;2022-08-21T03:17:29;100407.78;;;12.55;94.36
51849;BME280;38952;51.090;-1.832;2022-08-21T03:19:54;100400.91;;;12.52;94.18
51849;BME280;38952;51.090;-1.832;2022-08-21T03:22:19;100384.78;;;12.46;93.93
51849;BME280;38952;51.090;-1.832;2022-08-21T03:24:45;100396.28;;;12.48;93.77
51849;BME280;38952;51.090;-1.832;2022-08-21T03:27:11;100396.84;;;12.45;94.34
51849;BME280;38952;51.090;-1.832;2022-08-21T03:29:38;100389.69;;;12.49;93.78
51849;BME280;38952;51.090;-1.832;2022-08-21T03:32:04;100384.75;;;12.51;93.82
51849;BME280;38952;51.090;-1.832;2022-08-21T03:34:29;100373.25;;;12.49;93.98
51849;BME280;38952;51.090;-1.832;2022-08-21T03:36:55;100377.59;;;12.60;93.75
51849;BME280;38952;51.090;-1.832;2022-08-21T03:39:22;100371.53;;;12.63;93.74
51849;BME280;38952;51.090;-1.832;2022-08-21T03:41:48;100370.13;;;12.66;93.16
51849;BME280;38952;51.090;-1.832;2022-08-21T03:44:13;100360.81;;;12.67;93.21
51849;BME280;38952;51.090;-1.832;2022-08-21T03:46:39;100368.19;;;12.77;92.63
51849;BME280;38952;51.090;-1.832;2022-08-21T03:49:05;100368.69;;;12.84;92.33
51849;BME280;38952;51.090;-1.832;2022-08-21T03:51:31;100352.75;;;12.86;92.20
51849;BME280;38952;51.090;-1.832;2022-08-21T03:53:58;100359.34;;;12.90;92.29
51849;BME280;38952;51.090;-1.832;2022-08-21T03:56:24;100353.31;;;12.88;91.88
51849;BME280;38952;51.090;-1.832;2022-08-21T03:58:49;100350.00;;;12.86;91.99
51849;BME280;38952;51.090;-1.832;2022-08-21T04:01:15;100361.28;;;12.84;91.52
51849;BME280;38952;51.090;-1.832;2022-08-21T04:03:40;100372.59;;;12.78;91.62
51849;BME280;38952;51.090;-1.832;2022-08-21T04:06:06;100369.28;;;12.75;91.50
51849;BME280;38952;51.090;-1.832;2022-08-21T04:08:31;100371.50;;;12.73;91.56
51849;BME280;38952;51.090;-1.832;2022-08-21T04:10:58;100383.56;;;12.67;91.78
51849;BME280;38952;51.090;-1.832;2022-08-21T04:13:24;100390.75;;;12.63;92.04
51849;BME280;38952;51.090;-1.832;2022-08-21T04:15:49;100379.78;;;12.58;91.66
51849;BME280;38952;51.090;-1.832;2022-08-21T04:18:15;100381.97;;;12.61;92.16
51849;BME280;38952;51.090;-1.832;2022-08-21T04:20:42;100364.13;;;12.64;91.53
51849;BME280;38952;51.090;-1.832;2022-08-21T04:23:08;100368.75;;;12.68;91.23
51849;BME280;38952;51.090;-1.832;2022-08-21T04:25:34;100371.22;;;12.70;91.24
51849;BME280;38952;51.090;-1.832;2022-08-21T04:27:59;100372.59;;;12.72;91.65
51849;BME280;38952;51.090;-1.832;2022-08-21T04:30:25;100373.97;;;12.75;90.84
51849;BME280;38952;51.090;-1.832;2022-08-21T04:32:51;100380.25;;;12.75;91.16
51849;BME280;38952;51.090;-1.832;2022-08-21T04:35:20;100373.13;;;12.74;90.97
51849;BME280;38952;51.090;-1.832;2022-08-21T04:37:45;100373.69;;;12.71;90.56
51849;BME280;38952;51.090;-1.832;2022-08-21T04:40:13;100367.13;;;12.67;90.60
51849;BME280;38952;51.090;-1.832;2022-08-21T04:42:51;100380.56;;;12.69;91.17
51849;BME280;38952;51.090;-1.832;2022-08-21T04:45:27;100383.03;;;12.70;90.09
51849;BME280;38952;51.090;-1.832;2022-08-21T04:47:57;100389.06;;;12.72;90.63
51849;BME280;38952;51.090;-1.832;2022-08-21T04:50:28;100395.06;;;12.74;90.67
51849;BME280;38952;51.090;-1.832;2022-08-21T04:52:55;100398.88;;;12.84;90.44
51849;BME280;38952;51.090;-1.832;2022-08-21T04:55:22;100397.75;;;12.90;89.69
51849;BME280;38952;51.090;-1.832;2022-08-21T04:57:49;100402.91;;;13.02;89.64
51849;BME280;38952;51.090;-1.832;2022-08-21T05:00:16;100414.69;;;13.07;89.11
51849;BME280;38952;51.090;-1.832;2022-08-21T05:02:43;100418.47;;;13.17;88.84
51849;BME280;38952;51.090;-1.832;2022-08-21T05:05:09;100408.59;;;13.16;88.89
51849;BME280;38952;51.090;-1.832;2022-08-21T05:07:35;100417.59;;;13.21;88.59
51849;BME280;38952;51.090;-1.832;2022-08-21T05:10:02;100422.84;;;13.23;88.60
51849;BME280;38952;51.090;-1.832;2022-08-21T05:12:28;100431.03;;;13.28;88.48
51849;BME280;38952;51.090;-1.832;2022-08-21T05:14:55;100435.94;;;13.31;88.37
51849;BME280;38952;51.090;-1.832;2022-08-21T05:17:21;100440.91;;;13.34;87.67
51849;BME280;38952;51.090;-1.832;2022-08-21T05:19:46;100449.13;;;13.39;87.92
51849;BME280;38952;51.090;-1.832;2022-08-21T05:22:19;100453.53;;;13.40;87.23
51849;BME280;38952;51.090;-1.832;2022-08-21T05:24:44;100461.19;;;13.43;87.33
51849;BME280;38952;51.090;-1.832;2022-08-21T05:27:10;100455.94;;;13.47;86.95
51849;BME280;38952;51.090;-1.832;2022-08-21T05:29:35;100447.69;;;13.52;86.92
51849;BME280;38952;51.090;-1.832;2022-08-21T05:32:00;100453.94;;;13.58;86.82
51849;BME280;38952;51.090;-1.832;2022-08-21T05:34:26;100451.44;;;13.61;86.11
51849;BME280;38952;51.090;-1.832;2022-08-21T05:36:51;100444.81;;;13.68;85.89
51849;BME280;38952;51.090;-1.832;2022-08-21T05:39:17;100446.66;;;13.77;85.62
51849;BME280;38952;51.090;-1.832;2022-08-21T05:41:42;100432.84;;;13.88;85.60
51849;BME280;38952;51.090;-1.832;2022-08-21T05:44:08;100432.16;;;14.01;84.96
51849;BME280;38952;51.090;-1.832;2022-08-21T05:46:33;100427.59;;;14.21;84.57
51849;BME280;38952;51.090;-1.832;2022-08-21T05:48:59;100412.78;;;14.41;83.94
51849;BME280;38952;51.090;-1.832;2022-08-21T05:51:24;100417.22;;;14.66;82.98
51849;BME280;38952;51.090;-1.832;2022-08-21T05:53:50;100424.03;;;14.93;82.54
51849;BME280;38952;51.090;-1.832;2022-08-21T05:56:16;100406.94;;;15.15;81.50
51849;BME280;38952;51.090;-1.832;2022-08-21T05:58:42;100415.19;;;15.34;80.94
51849;BME280;38952;51.090;-1.832;2022-08-21T06:01:15;100405.13;;;15.43;80.47
51849;BME280;38952;51.090;-1.832;2022-08-21T06:03:41;100409.03;;;15.42;79.63
51849;BME280;38952;51.090;-1.832;2022-08-21T06:06:08;100401.94;;;15.17;79.69
51849;BME280;38952;51.090;-1.832;2022-08-21T06:08:35;100401.47;;;14.91;80.13
51849;BME280;38952;51.090;-1.832;2022-08-21T06:11:02;100394.91;;;14.68;80.38
51849;BME280;38952;51.090;-1.832;2022-08-21T06:13:28;100406.28;;;14.56;80.72
51849;BME280;38952;51.090;-1.832;2022-08-21T06:16:12;100409.16;;;14.45;80.64
51849;BME280;38952;51.090;-1.832;2022-08-21T06:18:39;100422.41;;;14.43;81.19
51849;BME280;38952;51.090;-1.832;2022-08-21T06:21:05;100420.75;;;14.42;81.02
51849;BME280;38952;51.090;-1.832;2022-08-21T06:23:32;100428.47;;;14.40;80.77
51849;BME280;38952;51.090;-1.832;2022-08-21T06:25:58;100423.56;;;14.37;80.95
51849;BME280;38952;51.090;-1.832;2022-08-21T06:28:24;100425.19;;;14.38;80.81
51849;BME280;38952;51.090;-1.832;2022-08-21T06:30:58;100424.38;;;14.38;80.98
51849;BME280;38952;51.090;-1.832;2022-08-21T06:33:24;100423.56;;;14.37;81.13
51849;BME280;38952;51.090;-1.832;2022-08-21T06:35:50;100409.81;;;14.37;80.98
51849;BME280;38952;51.090;-1.832;2022-08-21T06:38:15;100404.81;;;14.39;81.04
51849;BME280;38952;51.090;-1.832;2022-08-21T06:40:41;100399.31;;;14.39;80.86
51849;BME280;38952;51.090;-1.832;2022-08-21T06:43:10;100392.09;;;14.48;80.88
51849;BME280;38952;51.090;-1.832;2022-08-21T06:45:36;100387.25;;;14.59;80.36
51849;BME280;38952;51.090;-1.832;2022-08-21T06:48:02;100389.72;;;14.66;79.94
51849;BME280;38952;51.090;-1.832;2022-08-21T06:50:28;100387.69;;;14.72;80.01
51849;BME280;38952;51.090;-1.832;2022-08-21T06:53:06;100382.34;;;14.80;79.89
51849;BME280;38952;51.090;-1.832;2022-08-21T06:55:32;100385.50;;;14.93;79.46
51849;BME280;38952;51.090;-1.832;2022-08-21T06:57:58;100371.59;;;15.03;79.14
51849;BME280;38952;51.090;-1.832;2022-08-21T07:00:23;100374.78;;;15.10;79.01
51849;BME280;38952;51.090;-1.832;2022-08-21T07:02:49;100358.09;;;15.21;78.58
51849;BME280;38952;51.090;-1.832;2022-08-21T07:05:15;100356.69;;;15.23;77.99
51849;BME280;38952;51.090;-1.832;2022-08-21T07:07:40;100350.03;;;15.43;78.11
51849;BME280;38952;51.090;-1.832;2022-08-21T07:10:06;100363.16;;;15.84;77.22
51849;BME280;38952;51.090;-1.832;2022-08-21T07:12:31;100367.81;;;16.31;75.75
51849;BME280;38952;51.090;-1.832;2022-08-21T07:14:57;100373.50;;;16.76;74.74
51849;BME280;38952;51.090;-1.832;2022-08-21T07:17:23;100368.03;;;17.13;73.57
51849;BME280;38952;51.090;-1.832;2022-08-21T07:19:49;100365.81;;;17.37;72.57
51849;BME280;38952;51.090;-1.832;2022-08-21T07:22:18;100358.47;;;17.33;71.85
51849;BME280;38952;51.090;-1.832;2022-08-21T07:24:45;100358.59;;;17.27;71.67
51849;BME280;38952;51.090;-1.832;2022-08-21T07:27:11;100374.66;;;17.25;71.40
51849;BME280;38952;51.090;-1.832;2022-08-21T07:29:37;100364.00;;;17.33;71.09
51849;BME280;38952;51.090;-1.832;2022-08-21T07:32:02;100362.72;;;17.39;71.18
51849;BME280;38952;51.090;-1.832;2022-08-21T07:34:28;100370.50;;;17.59;70.89
51849;BME280;38952;51.090;-1.832;2022-08-21T07:36:54;100374.56;;;17.76;68.77
51849;BME280;38952;51.090;-1.832;2022-08-21T07:39:19;100379.56;;;17.74;67.79
51849;BME280;38952;51.090;-1.832;2022-08-21T07:41:44;100395.06;;;17.52;67.66
51849;BME280;38952;51.090;-1.832;2022-08-21T07:44:10;100392.06;;;17.26;68.89
51849;BME280;38952;51.090;-1.832;2022-08-21T07:46:35;100400.88;;;17.14;69.82
51849;BME280;38952;51.090;-1.832;2022-08-21T07:49:01;100393.75;;;17.13;70.49
51849;BME280;38952;51.090;-1.832;2022-08-21T07:51:27;100405.88;;;17.26;70.21
51849;BME280;38952;51.090;-1.832;2022-08-21T07:53:55;100405.22;;;17.66;68.95
51849;BME280;38952;51.090;-1.832;2022-08-21T07:56:22;100400.31;;;18.08;67.27
51849;BME280;38952;51.090;-1.832;2022-08-21T07:58:48;100404.72;;;18.49;65.85
51849;BME280;38952;51.090;-1.832;2022-08-21T08:01:13;100400.59;;;18.78;63.83
51849;BME280;38952;51.090;-1.832;2022-08-21T08:03:39;100411.97;;;18.67;63.49
51849;BME280;38952;51.090;-1.832;2022-08-21T08:06:06;100409.78;;;18.56;64.23
51849;BME280;38952;51.090;-1.832;2022-08-21T08:08:33;100407.81;;;18.47;64.26
51849;BME280;38952;51.090;-1.832;2022-08-21T08:11:00;100416.63;;;18.49;64.89
51849;BME280;38952;51.090;-1.832;2022-08-21T08:13:26;100425.44;;;18.52;64.51
51849;BME280;38952;51.090;-1.832;2022-08-21T08:15:52;100434.66;;;18.47;63.92
51849;BME280;38952;51.090;-1.832;2022-08-21T08:18:17;100427.97;;;18.39;64.19
51849;BME280;38952;51.090;-1.832;2022-08-21T08:20:45;100429.25;;;18.33;63.24
51849;BME280;38952;51.090;-1.832;2022-08-21T08:23:14;100434.03;;;18.41;63.75
51849;BME280;38952;51.090;-1.832;2022-08-21T08:25:40;100435.88;;;18.55;63.29
51849;BME280;38952;51.090;-1.832;2022-08-21T08:28:06;100452.66;;;18.58;63.10
51849;BME280;38952;51.090;-1.832;2022-08-21T08:30:32;100434.13;;;18.67;63.13
51849;BME280;38952;51.090;-1.832;2022-08-21T08:32:58;100442.63;;;18.80;62.89
51849;BME280;38952;51.090;-1.832;2022-08-21T08:35:25;100445.81;;;18.96;62.93
51849;BME280;38952;51.090;-1.832;2022-08-21T08:37:51;100445.03;;;19.13;62.20
51849;BME280;38952;51.090;-1.832;2022-08-21T08:40:38;100448.97;;;19.47;61.42
51849;BME280;38952;51.090;-1.832;2022-08-21T08:43:05;100454.66;;;20.03;60.19
51849;BME280;38952;51.090;-1.832;2022-08-21T08:45:34;100452.50;;;20.26;58.46
51849;BME280;38952;51.090;-1.832;2022-08-21T08:48:04;100451.16;;;20.32;57.72
51849;BME280;38952;51.090;-1.832;2022-08-21T08:50:44;100454.16;;;20.66;57.54
51849;BME280;38952;51.090;-1.832;2022-08-21T08:53:19;100458.56;;;20.75;55.45
51849;BME280;38952;51.090;-1.832;2022-08-21T08:55:48;100457.75;;;20.75;55.52
51849;BME280;38952;51.090;-1.832;2022-08-21T08:58:23;100450.69;;;20.78;55.37
51849;BME280;38952;51.090;-1.832;2022-08-21T09:00:51;100453.03;;;20.97;55.13
51849;BME280;38952;51.090;-1.832;2022-08-21T09:03:17;100447.00;;;21.88;52.89
51849;BME280;38952;51.090;-1.832;2022-08-21T09:05:48;100445.59;;;24.68;47.72
51849;BME280;38952;51.090;-1.832;2022-08-21T09:11:09;100450.25;;;30.30;36.05
51849;BME280;38952;51.090;-1.832;2022-08-21T09:13:50;100449.00;;;31.36;31.53
51849;BME280;38952;51.090;-1.832;2022-08-21T09:19:49;100454.69;;;31.18;31.26
51849;BME280;38952;51.090;-1.832;2022-08-21T09:22:43;100444.25;;;32.03;29.94
51849;BME280;38952;51.090;-1.832;2022-08-21T09:25:18;100442.56;;;34.14;26.42
51849;BME280;38952;51.090;-1.832;2022-08-21T09:27:48;100447.09;;;34.08;27.38
51849;BME280;38952;51.090;-1.832;2022-08-21T09:30:14;100435.66;;;34.66;27.20
51849;BME280;38952;51.090;-1.832;2022-08-21T09:32:40;100424.78;;;34.37;26.85
51849;BME280;38952;51.090;-1.832;2022-08-21T09:35:18;100416.66;;;33.16;26.80
51849;BME280;38952;51.090;-1.832;2022-08-21T09:38:10;100428.13;;;33.74;25.90
51849;BME280;38952;51.090;-1.832;2022-08-21T09:40:45;100418.41;;;33.02;25.82
51849;BME280;38952;51.090;-1.832;2022-08-21T09:43:21;100408.41;;;31.85;28.23
51849;BME280;38952;51.090;-1.832;2022-08-21T09:45:48;100416.41;;;30.88;29.16
51849;BME280;38952;51.090;-1.832;2022-08-21T09:48:19;100415.53;;;29.90;30.28
51849;BME280;38952;51.090;-1.832;2022-08-21T09:50:45;100419.66;;;30.75;29.86
51849;BME280;38952;51.090;-1.832;2022-08-21T09:53:21;100422.22;;;32.88;27.07
51849;BME280;38952;51.090;-1.832;2022-08-21T09:55:52;100434.69;;;32.95;26.20
51849;BME280;38952;51.090;-1.832;2022-08-21T09:58:38;100429.03;;;32.95;26.46
51849;BME280;38952;51.090;-1.832;2022-08-21T10:01:06;100428.31;;;34.45;23.79
51849;BME280;38952;51.090;-1.832;2022-08-21T10:03:31;100423.81;;;34.95;23.37
51849;BME280;38952;51.090;-1.832;2022-08-21T10:06:07;100430.28;;;35.76;21.72
51849;BME280;38952;51.090;-1.832;2022-08-21T10:08:39;100428.47;;;33.45;23.85
51849;BME280;38952;51.090;-1.832;2022-08-21T10:11:10;100417.50;;;31.37;26.20
51849;BME280;38952;51.090;-1.832;2022-08-21T10:13:43;100434.13;;;31.13;27.52
51849;BME280;38952;51.090;-1.832;2022-08-21T10:16:33;100433.22;;;31.45;26.71
51849;BME280;38952;51.090;-1.832;2022-08-21T10:22:19;100420.47;;;30.51;27.55
51849;BME280;38952;51.090;-1.832;2022-08-21T10:25:30;100421.91;;;33.86;25.06
51849;BME280;38952;51.090;-1.832;2022-08-21T10:33:03;100425.06;;;36.93;21.52
51849;BME280;38952;51.090;-1.832;2022-08-21T10:38:36;100426.81;;;39.44;18.27
51849;BME280;38952;51.090;-1.832;2022-08-21T10:47:35;100422.91;;;41.01;16.77
51849;BME280;38952;51.090;-1.832;2022-08-21T10:57:53;100415.25;;;44.27;13.44
51849;BME280;38952;51.090;-1.832;2022-08-21T11:00:26;100405.78;;;45.09;13.36
51849;BME280;38952;51.090;-1.832;2022-08-21T11:05:34;100393.66;;;46.99;12.73
51849;BME280;38952;51.090;-1.832;2022-08-21T11:08:11;100399.00;;;48.67;12.51
51849;BME280;38952;51.090;-1.832;2022-08-21T11:10:48;100394.56;;;51.05;9.42
51849;BME280;38952;51.090;-1.832;2022-08-21T11:18:41;100392.13;;;52.41;8.54
51849;BME280;38952;51.090;-1.832;2022-08-21T11:21:26;100391.47;;;52.22;8.86
51849;BME280;38952;51.090;-1.832;2022-08-21T11:26:44;100368.72;;;45.92;10.94
51849;BME280;38952;51.090;-1.832;2022-08-21T11:29:16;100371.31;;;42.05;14.14
51849;BME280;38952;51.090;-1.832;2022-08-21T11:31:54;100369.28;;;38.63;16.76
51849;BME280;38952;51.090;-1.832;2022-08-21T11:45:23;100370.00;;;34.64;21.54
51849;BME280;38952;51.090;-1.832;2022-08-21T11:50:59;100363.09;;;37.52;18.76
51849;BME280;38952;51.090;-1.832;2022-08-21T11:53:36;100363.81;;;37.69;18.73
51849;BME280;38952;51.090;-1.832;2022-08-21T11:56:15;100368.38;;;36.82;19.15
51849;BME280;38952;51.090;-1.832;2022-08-21T11:58:49;100362.28;;;34.41;21.14
51849;BME280;38952;51.090;-1.832;2022-08-21T12:01:19;100353.09;;;32.82;23.12
51849;BME280;38952;51.090;-1.832;2022-08-21T12:04:00;100355.09;;;30.92;26.50
51849;BME280;38952;51.090;-1.832;2022-08-21T12:06:39;100355.03;;;29.55;28.73
51849;BME280;38952;51.090;-1.832;2022-08-21T12:12:04;100340.78;;;28.49;30.41
51849;BME280;38952;51.090;-1.832;2022-08-21T12:14:46;100353.97;;;27.96;31.37
51849;BME280;38952;51.090;-1.832;2022-08-21T12:17:22;100349.00;;;27.11;33.06
51849;BME280;38952;51.090;-1.832;2022-08-21T12:20:00;100350.50;;;27.05;33.33
51849;BME280;38952;51.090;-1.832;2022-08-21T12:22:53;100352.78;;;26.95;34.51
51849;BME280;38952;51.090;-1.832;2022-08-21T12:25:21;100353.19;;;26.44;35.59
51849;BME280;38952;51.090;-1.832;2022-08-21T12:27:51;100358.28;;;26.35;35.95
51849;BME280;38952;51.090;-1.832;2022-08-21T12:35:25;100358.78;;;25.98;36.52
51849;BME280;38952;51.090;-1.832;2022-08-21T12:38:29;100365.88;;;26.11;37.19
51849;BME280;38952;51.090;-1.832;2022-08-21T12:41:00;100363.22;;;25.99;37.84
51849;BME280;38952;51.090;-1.832;2022-08-21T12:43:33;100359.38;;;25.64;39.33
51849;BME280;38952;51.090;-1.832;2022-08-21T12:46:01;100358.28;;;25.49;39.53
51849;BME280;38952;51.090;-1.832;2022-08-21T12:48:35;100359.59;;;25.75;38.94
51849;BME280;38952;51.090;-1.832;2022-08-21T12:51:16;100363.28;;;25.59;39.53
51849;BME280;38952;51.090;-1.832;2022-08-21T12:53:53;100361.50;;;25.12;40.44
51849;BME280;38952;51.090;-1.832;2022-08-21T12:56:26;100356.50;;;25.02;40.26
51849;BME280;38952;51.090;-1.832;2022-08-21T12:59:02;100360.78;;;25.15;40.83
51849;BME280;38952;51.090;-1.832;2022-08-21T13:01:37;100351.47;;;24.91;40.68
51849;BME280;38952;51.090;-1.832;2022-08-21T13:04:09;100349.84;;;24.90;40.91
51849;BME280;38952;51.090;-1.832;2022-08-21T13:06:55;100354.72;;;24.94;40.42
51849;BME280;38952;51.090;-1.832;2022-08-21T13:09:26;100359.00;;;25.07;40.28
51849;BME280;38952;51.090;-1.832;2022-08-21T13:11:53;100348.63;;;25.27;40.00
51849;BME280;38952;51.090;-1.832;2022-08-21T13:14:40;100342.25;;;25.46;39.57
51849;BME280;38952;51.090;-1.832;2022-08-21T13:17:06;100345.69;;;25.59;38.98
51849;BME280;38952;51.090;-1.832;2022-08-21T13:19:32;100348.66;;;25.89;38.79
51849;BME280;38952;51.090;-1.832;2022-08-21T13:21:58;100345.13;;;26.39;38.08
51849;BME280;38952;51.090;-1.832;2022-08-21T13:24:32;100342.38;;;26.96;37.23
51849;BME280;38952;51.090;-1.832;2022-08-21T13:26:58;100342.00;;;27.28;36.09
51849;BME280;38952;51.090;-1.832;2022-08-21T13:29:28;100339.59;;;27.64;35.25
51849;BME280;38952;51.090;-1.832;2022-08-21T13:32:00;100346.81;;;29.14;34.07
51849;BME280;38952;51.090;-1.832;2022-08-21T13:34:30;100340.53;;;33.21;27.73
51849;BME280;38952;51.090;-1.832;2022-08-21T13:37:03;100346.09;;;35.98;23.87
51849;BME280;38952;51.090;-1.832;2022-08-21T13:39:30;100355.75;;;38.41;21.26
51849;BME280;38952;51.090;-1.832;2022-08-21T13:41:57;100348.59;;;37.34;21.56
51849;BME280;38952;51.090;-1.832;2022-08-21T13:44:40;100342.69;;;35.34;23.72
51849;BME280;38952;51.090;-1.832;2022-08-21T13:47:07;100338.41;;;33.87;25.04
51849;BME280;38952;51.090;-1.832;2022-08-21T13:49:38;100331.22;;;32.86;26.28
51849;BME280;38952;51.090;-1.832;2022-08-21T13:52:14;100326.53;;;32.73;26.79
51849;BME280;38952;51.090;-1.832;2022-08-21T13:54:41;100329.41;;;33.03;26.59
51849;BME280;38952;51.090;-1.832;2022-08-21T13:57:31;100319.66;;;32.28;26.96